Gulf Shores, Alabama
Current Conditions -  °F | °C
As of 3:55 AM on Friday 19 Dec 2014 (Local Time) from KJKA Reporting Station
Overcast Overcast  
Wind Chill: 53°   Ceiling: 3700
Heat Index: 53°   Visibility: 10mi
Dew Point: 45°   Wind: 5mph
Humidity: 75%   Direction: 30°NNE
Pressure: 30.11"   Gusts: NA
Location:  30.27°N, 87.7°W
Report Text: KJKA 190955Z AUTO 03004KT 10SM BKN037 OVC055 12/07 A3011 RMK AO2 T01150073
Loading
Personal Weather Stations






























Interactive Weather Map New forecast layout! Learn more

10-Day Weather Forecast

Advertisements
Track Severe Weather on mobile